sensor_id;sensor_type;location;lat;lon;timestamp;P1;durP1;ratioP1;P2;durP2;ratioP2
77868;SDS011;67231;59.144;37.934;2023-02-01T00:01:59;2.17;;;1.30;;
77868;SDS011;67231;59.144;37.934;2023-02-01T00:04:25;2.42;;;1.20;;
77868;SDS011;67231;59.144;37.934;2023-02-01T00:06:51;1.80;;;1.10;;
77868;SDS011;67231;59.144;37.934;2023-02-01T00:09:17;1.10;;;0.75;;
77868;SDS011;67231;59.144;37.934;2023-02-01T00:11:42;1.55;;;0.98;;
77868;SDS011;67231;59.144;37.934;2023-02-01T00:14:08;0.95;;;0.55;;
77868;SDS011;67231;59.144;37.934;2023-02-01T00:16:34;0.98;;;0.77;;
77868;SDS011;67231;59.144;37.934;2023-02-01T00:21:45;1.23;;;0.82;;
77868;SDS011;67231;59.144;37.934;2023-02-01T00:24:11;1.13;;;0.68;;
77868;SDS011;67231;59.144;37.934;2023-02-01T00:26:38;1.92;;;1.00;;
77868;SDS011;67231;59.144;37.934;2023-02-01T00:29:06;1.23;;;0.73;;
77868;SDS011;67231;59.144;37.934;2023-02-01T00:31:36;1.23;;;0.90;;
77868;SDS011;67231;59.144;37.934;2023-02-01T00:34:03;1.92;;;0.90;;
77868;SDS011;67231;59.144;37.934;2023-02-01T00:36:29;1.67;;;1.00;;
77868;SDS011;67231;59.144;37.934;2023-02-01T00:38:55;1.23;;;0.65;;
77868;SDS011;67231;59.144;37.934;2023-02-01T00:41:20;1.77;;;0.90;;
77868;SDS011;67231;59.144;37.934;2023-02-01T00:43:47;1.10;;;0.70;;
77868;SDS011;67231;59.144;37.934;2023-02-01T00:46:14;1.23;;;0.63;;
77868;SDS011;67231;59.144;37.934;2023-02-01T00:48:41;1.63;;;0.60;;
77868;SDS011;67231;59.144;37.934;2023-02-01T00:51:08;0.70;;;0.50;;
77868;SDS011;67231;59.144;37.934;2023-02-01T00:53:39;1.58;;;0.90;;
77868;SDS011;67231;59.144;37.934;2023-02-01T00:56:05;0.98;;;0.65;;
77868;SDS011;67231;59.144;37.934;2023-02-01T00:58:31;0.90;;;0.60;;
77868;SDS011;67231;59.144;37.934;2023-02-01T01:01:05;0.77;;;0.55;;
77868;SDS011;67231;59.144;37.934;2023-02-01T01:03:34;1.45;;;0.80;;
77868;SDS011;67231;59.144;37.934;2023-02-01T01:06:03;1.88;;;0.70;;
77868;SDS011;67231;59.144;37.934;2023-02-01T01:08:30;1.45;;;0.70;;
77868;SDS011;67231;59.144;37.934;2023-02-01T01:10:56;1.85;;;0.60;;
77868;SDS011;67231;59.144;37.934;2023-02-01T01:13:22;0.68;;;0.40;;
77868;SDS011;67231;59.144;37.934;2023-02-01T01:15:48;1.60;;;0.70;;
77868;SDS011;67231;59.144;37.934;2023-02-01T01:18:13;2.05;;;0.90;;
77868;SDS011;67231;59.144;37.934;2023-02-01T01:20:40;2.47;;;0.80;;
77868;SDS011;67231;59.144;37.934;2023-02-01T01:23:06;1.30;;;0.73;;
77868;SDS011;67231;59.144;37.934;2023-02-01T01:25:37;0.70;;;0.40;;
77868;SDS011;67231;59.144;37.934;2023-02-01T01:28:04;0.30;;;0.28;;
77868;SDS011;67231;59.144;37.934;2023-02-01T01:30:30;0.57;;;0.47;;
77868;SDS011;67231;59.144;37.934;2023-02-01T01:32:55;1.17;;;0.70;;
77868;SDS011;67231;59.144;37.934;2023-02-01T01:35:21;0.82;;;0.60;;
77868;SDS011;67231;59.144;37.934;2023-02-01T01:37:46;1.20;;;0.65;;
77868;SDS011;67231;59.144;37.934;2023-02-01T01:40:12;1.67;;;0.70;;
77868;SDS011;67231;59.144;37.934;2023-02-01T01:42:40;0.65;;;0.65;;
77868;SDS011;67231;59.144;37.934;2023-02-01T01:45:24;1.05;;;0.70;;
77868;SDS011;67231;59.144;37.934;2023-02-01T01:47:52;0.85;;;0.43;;
77868;SDS011;67231;59.144;37.934;2023-02-01T01:50:21;0.60;;;0.50;;
77868;SDS011;67231;59.144;37.934;2023-02-01T01:52:50;0.55;;;0.32;;
77868;SDS011;67231;59.144;37.934;2023-02-01T01:55:20;1.05;;;0.38;;
77868;SDS011;67231;59.144;37.934;2023-02-01T01:57:57;0.40;;;0.25;;
77868;SDS011;67231;59.144;37.934;2023-02-01T02:00:31;0.77;;;0.55;;
77868;SDS011;67231;59.144;37.934;2023-02-01T02:02:59;0.50;;;0.50;;
77868;SDS011;67231;59.144;37.934;2023-02-01T02:05:31;0.85;;;0.43;;
77868;SDS011;67231;59.144;37.934;2023-02-01T02:07:58;1.02;;;0.65;;
77868;SDS011;67231;59.144;37.934;2023-02-01T02:10:28;2.08;;;0.70;;
77868;SDS011;67231;59.144;37.934;2023-02-01T02:13:13;0.65;;;0.40;;
77868;SDS011;67231;59.144;37.934;2023-02-01T02:15:42;1.17;;;0.70;;
77868;SDS011;67231;59.144;37.934;2023-02-01T02:18:21;0.63;;;0.60;;
77868;SDS011;67231;59.144;37.934;2023-02-01T02:21:32;0.45;;;0.30;;
77868;SDS011;67231;59.144;37.934;2023-02-01T02:32:58;0.75;;;0.45;;
77868;SDS011;67231;59.144;37.934;2023-02-01T02:40:41;1.13;;;0.70;;
77868;SDS011;67231;59.144;37.934;2023-02-01T02:51:35;0.55;;;0.40;;
77868;SDS011;67231;59.144;37.934;2023-02-01T02:54:34;2.03;;;0.63;;
77868;SDS011;67231;59.144;37.934;2023-02-01T02:57:34;1.27;;;0.40;;
77868;SDS011;67231;59.144;37.934;2023-02-01T03:00:24;1.27;;;0.50;;
77868;SDS011;67231;59.144;37.934;2023-02-01T03:03:12;0.57;;;0.38;;
77868;SDS011;67231;59.144;37.934;2023-02-01T03:05:56;0.85;;;0.60;;
77868;SDS011;67231;59.144;37.934;2023-02-01T03:08:23;6.05;;;1.00;;
77868;SDS011;67231;59.144;37.934;2023-02-01T03:16:02;1.33;;;0.77;;
77868;SDS011;67231;59.144;37.934;2023-02-01T03:18:42;0.73;;;0.60;;
77868;SDS011;67231;59.144;37.934;2023-02-01T03:21:10;0.95;;;0.80;;
77868;SDS011;67231;59.144;37.934;2023-02-01T03:23:40;0.88;;;0.47;;
77868;SDS011;67231;59.144;37.934;2023-02-01T03:26:09;1.17;;;0.80;;
77868;SDS011;67231;59.144;37.934;2023-02-01T03:28:42;1.38;;;0.63;;
77868;SDS011;67231;59.144;37.934;2023-02-01T03:31:14;1.17;;;0.60;;
77868;SDS011;67231;59.144;37.934;2023-02-01T03:33:40;1.17;;;0.70;;
77868;SDS011;67231;59.144;37.934;2023-02-01T03:38:48;1.42;;;0.57;;
77868;SDS011;67231;59.144;37.934;2023-02-01T03:41:27;1.08;;;0.73;;
77868;SDS011;67231;59.144;37.934;2023-02-01T03:44:06;1.33;;;0.73;;
77868;SDS011;67231;59.144;37.934;2023-02-01T03:46:59;2.92;;;0.65;;
77868;SDS011;67231;59.144;37.934;2023-02-01T03:49:39;0.88;;;0.55;;
77868;SDS011;67231;59.144;37.934;2023-02-01T03:52:09;1.33;;;0.70;;
77868;SDS011;67231;59.144;37.934;2023-02-01T03:54:38;3.33;;;0.80;;
77868;SDS011;67231;59.144;37.934;2023-02-01T03:57:06;0.82;;;0.50;;
77868;SDS011;67231;59.144;37.934;2023-02-01T03:59:38;0.57;;;0.55;;
77868;SDS011;67231;59.144;37.934;2023-02-01T04:02:07;1.63;;;0.73;;
77868;SDS011;67231;59.144;37.934;2023-02-01T04:04:33;1.13;;;0.70;;
77868;SDS011;67231;59.144;37.934;2023-02-01T04:07:00;1.05;;;0.52;;
77868;SDS011;67231;59.144;37.934;2023-02-01T04:09:26;1.90;;;1.10;;
77868;SDS011;67231;59.144;37.934;2023-02-01T04:11:51;1.17;;;0.75;;
77868;SDS011;67231;59.144;37.934;2023-02-01T04:14:17;2.15;;;0.80;;
77868;SDS011;67231;59.144;37.934;2023-02-01T04:16:43;1.83;;;0.80;;
77868;SDS011;67231;59.144;37.934;2023-02-01T04:19:08;1.35;;;0.85;;
77868;SDS011;67231;59.144;37.934;2023-02-01T04:21:34;1.98;;;0.95;;
77868;SDS011;67231;59.144;37.934;2023-02-01T04:23:59;1.40;;;0.65;;
77868;SDS011;67231;59.144;37.934;2023-02-01T04:26:25;0.95;;;0.50;;
77868;SDS011;67231;59.144;37.934;2023-02-01T04:28:51;1.60;;;0.88;;
77868;SDS011;67231;59.144;37.934;2023-02-01T04:31:18;0.95;;;0.63;;
77868;SDS011;67231;59.144;37.934;2023-02-01T04:33:53;1.10;;;0.70;;
77868;SDS011;67231;59.144;37.934;2023-02-01T04:36:20;0.88;;;0.68;;
77868;SDS011;67231;59.144;37.934;2023-02-01T04:38:50;2.75;;;0.77;;
77868;SDS011;67231;59.144;37.934;2023-02-01T04:41:16;0.65;;;0.47;;
77868;SDS011;67231;59.144;37.934;2023-02-01T04:43:45;1.73;;;0.82;;
77868;SDS011;67231;59.144;37.934;2023-02-01T04:46:12;9.95;;;0.85;;
77868;SDS011;67231;59.144;37.934;2023-02-01T04:48:38;1.50;;;0.80;;
77868;SDS011;67231;59.144;37.934;2023-02-01T04:51:03;1.33;;;0.57;;
77868;SDS011;67231;59.144;37.934;2023-02-01T04:53:29;1.13;;;0.65;;
77868;SDS011;67231;59.144;37.934;2023-02-01T04:55:55;2.63;;;1.00;;
77868;SDS011;67231;59.144;37.934;2023-02-01T04:58:21;1.05;;;0.55;;
77868;SDS011;67231;59.144;37.934;2023-02-01T05:00:47;1.23;;;0.70;;
77868;SDS011;67231;59.144;37.934;2023-02-01T05:03:14;0.88;;;0.73;;
77868;SDS011;67231;59.144;37.934;2023-02-01T05:05:40;1.27;;;0.85;;
77868;SDS011;67231;59.144;37.934;2023-02-01T05:08:06;1.38;;;0.85;;
77868;SDS011;67231;59.144;37.934;2023-02-01T05:10:32;0.90;;;0.80;;
77868;SDS011;67231;59.144;37.934;2023-02-01T05:12:57;1.20;;;0.77;;
77868;SDS011;67231;59.144;37.934;2023-02-01T05:15:42;1.90;;;1.00;;
77868;SDS011;67231;59.144;37.934;2023-02-01T05:18:08;0.63;;;0.38;;
77868;SDS011;67231;59.144;37.934;2023-02-01T05:20:33;2.75;;;1.10;;
77868;SDS011;67231;59.144;37.934;2023-02-01T05:22:59;0.88;;;0.60;;
77868;SDS011;67231;59.144;37.934;2023-02-01T05:25:25;3.63;;;1.55;;
77868;SDS011;67231;59.144;37.934;2023-02-01T05:27:50;2.20;;;1.40;;
77868;SDS011;67231;59.144;37.934;2023-02-01T05:30:16;1.70;;;1.17;;
77868;SDS011;67231;59.144;37.934;2023-02-01T05:32:42;1.70;;;0.90;;
77868;SDS011;67231;59.144;37.934;2023-02-01T05:35:08;2.28;;;1.00;;
77868;SDS011;67231;59.144;37.934;2023-02-01T05:37:34;4.10;;;1.70;;
77868;SDS011;67231;59.144;37.934;2023-02-01T05:39:59;2.30;;;1.33;;
77868;SDS011;67231;59.144;37.934;2023-02-01T05:42:25;2.08;;;1.23;;
77868;SDS011;67231;59.144;37.934;2023-02-01T05:44:51;3.05;;;1.40;;
77868;SDS011;67231;59.144;37.934;2023-02-01T05:47:17;4.20;;;1.90;;
77868;SDS011;67231;59.144;37.934;2023-02-01T05:49:43;2.75;;;1.33;;
77868;SDS011;67231;59.144;37.934;2023-02-01T05:52:08;1.90;;;1.17;;
77868;SDS011;67231;59.144;37.934;2023-02-01T05:54:34;3.08;;;1.08;;
77868;SDS011;67231;59.144;37.934;2023-02-01T05:57:00;2.28;;;1.20;;
77868;SDS011;67231;59.144;37.934;2023-02-01T05:59:26;1.85;;;1.10;;
77868;SDS011;67231;59.144;37.934;2023-02-01T06:01:52;2.90;;;1.20;;
77868;SDS011;67231;59.144;37.934;2023-02-01T06:04:17;2.15;;;1.15;;
77868;SDS011;67231;59.144;37.934;2023-02-01T06:06:43;1.58;;;0.70;;
77868;SDS011;67231;59.144;37.934;2023-02-01T06:09:09;2.25;;;0.90;;
77868;SDS011;67231;59.144;37.934;2023-02-01T06:11:35;2.55;;;1.33;;
77868;SDS011;67231;59.144;37.934;2023-02-01T06:14:00;2.72;;;1.10;;
77868;SDS011;67231;59.144;37.934;2023-02-01T06:16:26;2.03;;;1.00;;
77868;SDS011;67231;59.144;37.934;2023-02-01T06:18:52;1.33;;;0.90;;
77868;SDS011;67231;59.144;37.934;2023-02-01T06:21:18;0.47;;;0.45;;
77868;SDS011;67231;59.144;37.934;2023-02-01T06:23:52;2.13;;;1.15;;
77868;SDS011;67231;59.144;37.934;2023-02-01T06:26:19;3.35;;;1.20;;
77868;SDS011;67231;59.144;37.934;2023-02-01T06:28:45;3.75;;;1.25;;
77868;SDS011;67231;59.144;37.934;2023-02-01T06:31:11;1.95;;;0.98;;
77868;SDS011;67231;59.144;37.934;2023-02-01T06:33:37;2.05;;;1.05;;
77868;SDS011;67231;59.144;37.934;2023-02-01T06:36:06;2.53;;;1.30;;
77868;SDS011;67231;59.144;37.934;2023-02-01T06:38:33;2.03;;;1.30;;
77868;SDS011;67231;59.144;37.934;2023-02-01T06:41:00;2.83;;;1.13;;
77868;SDS011;67231;59.144;37.934;2023-02-01T06:43:26;3.03;;;1.50;;
77868;SDS011;67231;59.144;37.934;2023-02-01T06:45:53;4.95;;;1.92;;
77868;SDS011;67231;59.144;37.934;2023-02-01T06:48:24;2.33;;;1.30;;
77868;SDS011;67231;59.144;37.934;2023-02-01T06:50:50;2.72;;;1.27;;
77868;SDS011;67231;59.144;37.934;2023-02-01T06:53:15;2.50;;;1.20;;
77868;SDS011;67231;59.144;37.934;2023-02-01T06:55:41;2.65;;;1.05;;
77868;SDS011;67231;59.144;37.934;2023-02-01T06:58:07;2.60;;;1.10;;
77868;SDS011;67231;59.144;37.934;2023-02-01T07:00:32;9.13;;;3.50;;
77868;SDS011;67231;59.144;37.934;2023-02-01T07:02:58;10.27;;;4.13;;
77868;SDS011;67231;59.144;37.934;2023-02-01T07:05:25;2.40;;;1.27;;
77868;SDS011;67231;59.144;37.934;2023-02-01T07:07:50;5.95;;;1.90;;
77868;SDS011;67231;59.144;37.934;2023-02-01T07:10:16;6.20;;;2.58;;
77868;SDS011;67231;59.144;37.934;2023-02-01T07:12:42;4.25;;;1.60;;
77868;SDS011;67231;59.144;37.934;2023-02-01T07:15:07;4.95;;;2.30;;
77868;SDS011;67231;59.144;37.934;2023-02-01T07:17:33;1.30;;;0.90;;
77868;SDS011;67231;59.144;37.934;2023-02-01T07:19:59;4.85;;;2.20;;
77868;SDS011;67231;59.144;37.934;2023-02-01T07:22:26;3.58;;;1.50;;
77868;SDS011;67231;59.144;37.934;2023-02-01T07:24:52;2.33;;;1.20;;
77868;SDS011;67231;59.144;37.934;2023-02-01T07:27:18;1.63;;;0.98;;
77868;SDS011;67231;59.144;37.934;2023-02-01T07:29:45;1.60;;;1.00;;
77868;SDS011;67231;59.144;37.934;2023-02-01T07:32:10;3.10;;;1.20;;
77868;SDS011;67231;59.144;37.934;2023-02-01T07:34:36;3.53;;;1.13;;
77868;SDS011;67231;59.144;37.934;2023-02-01T07:37:01;1.85;;;1.00;;
77868;SDS011;67231;59.144;37.934;2023-02-01T07:39:28;1.45;;;0.90;;
77868;SDS011;67231;59.144;37.934;2023-02-01T07:41:53;2.55;;;1.02;;
77868;SDS011;67231;59.144;37.934;2023-02-01T07:44:19;1.17;;;0.70;;
77868;SDS011;67231;59.144;37.934;2023-02-01T07:46:48;1.90;;;1.10;;
77868;SDS011;67231;59.144;37.934;2023-02-01T07:49:14;2.40;;;0.95;;
77868;SDS011;67231;59.144;37.934;2023-02-01T07:51:40;2.92;;;1.60;;
77868;SDS011;67231;59.144;37.934;2023-02-01T07:54:06;2.42;;;1.40;;
77868;SDS011;67231;59.144;37.934;2023-02-01T07:56:31;2.08;;;1.20;;
77868;SDS011;67231;59.144;37.934;2023-02-01T07:58:57;1.40;;;0.98;;
77868;SDS011;67231;59.144;37.934;2023-02-01T08:01:25;2.63;;;1.35;;
77868;SDS011;67231;59.144;37.934;2023-02-01T08:04:01;3.50;;;1.55;;
77868;SDS011;67231;59.144;37.934;2023-02-01T08:08:56;2.90;;;1.33;;
77868;SDS011;67231;59.144;37.934;2023-02-01T08:11:22;2.05;;;1.17;;
77868;SDS011;67231;59.144;37.934;2023-02-01T08:13:49;3.25;;;1.50;;
77868;SDS011;67231;59.144;37.934;2023-02-01T08:16:16;4.05;;;1.65;;
77868;SDS011;67231;59.144;37.934;2023-02-01T08:18:43;3.00;;;1.50;;
77868;SDS011;67231;59.144;37.934;2023-02-01T08:21:11;2.28;;;1.40;;
77868;SDS011;67231;59.144;37.934;2023-02-01T08:23:39;2.28;;;1.33;;
77868;SDS011;67231;59.144;37.934;2023-02-01T08:28:44;4.20;;;1.73;;
77868;SDS011;67231;59.144;37.934;2023-02-01T08:31:12;5.15;;;1.88;;
77868;SDS011;67231;59.144;37.934;2023-02-01T08:33:41;5.38;;;1.70;;
77868;SDS011;67231;59.144;37.934;2023-02-01T08:36:09;3.53;;;1.95;;
77868;SDS011;67231;59.144;37.934;2023-02-01T08:38:36;3.45;;;1.50;;
77868;SDS011;67231;59.144;37.934;2023-02-01T08:41:10;2.58;;;1.38;;
77868;SDS011;67231;59.144;37.934;2023-02-01T08:43:38;4.35;;;1.42;;
77868;SDS011;67231;59.144;37.934;2023-02-01T08:46:04;4.63;;;1.70;;
77868;SDS011;67231;59.144;37.934;2023-02-01T08:48:31;3.97;;;1.20;;
77868;SDS011;67231;59.144;37.934;2023-02-01T08:50:57;3.80;;;1.52;;
77868;SDS011;67231;59.144;37.934;2023-02-01T08:53:27;2.85;;;1.70;;
77868;SDS011;67231;59.144;37.934;2023-02-01T08:55:52;2.55;;;1.45;;
77868;SDS011;67231;59.144;37.934;2023-02-01T08:58:18;2.00;;;1.20;;
77868;SDS011;67231;59.144;37.934;2023-02-01T09:00:45;2.58;;;1.40;;
77868;SDS011;67231;59.144;37.934;2023-02-01T09:03:11;4.10;;;2.03;;
77868;SDS011;67231;59.144;37.934;2023-02-01T09:05:37;3.50;;;1.60;;
77868;SDS011;67231;59.144;37.934;2023-02-01T09:08:03;3.05;;;1.80;;
77868;SDS011;67231;59.144;37.934;2023-02-01T09:10:30;4.15;;;1.90;;
77868;SDS011;67231;59.144;37.934;2023-02-01T09:12:56;3.50;;;1.40;;
77868;SDS011;67231;59.144;37.934;2023-02-01T09:15:22;3.83;;;1.90;;
77868;SDS011;67231;59.144;37.934;2023-02-01T09:17:48;1.95;;;1.15;;
77868;SDS011;67231;59.144;37.934;2023-02-01T09:20:14;3.47;;;1.48;;
77868;SDS011;67231;59.144;37.934;2023-02-01T09:22:40;3.55;;;1.15;;
77868;SDS011;67231;59.144;37.934;2023-02-01T09:25:06;2.65;;;1.63;;
77868;SDS011;67231;59.144;37.934;2023-02-01T09:27:33;4.20;;;1.70;;
77868;SDS011;67231;59.144;37.934;2023-02-01T09:30:00;2.88;;;1.60;;
77868;SDS011;67231;59.144;37.934;2023-02-01T09:32:26;2.85;;;1.63;;
77868;SDS011;67231;59.144;37.934;2023-02-01T09:34:51;3.58;;;1.90;;
77868;SDS011;67231;59.144;37.934;2023-02-01T09:37:18;4.50;;;1.95;;
77868;SDS011;67231;59.144;37.934;2023-02-01T09:39:44;4.72;;;1.30;;
77868;SDS011;67231;59.144;37.934;2023-02-01T09:42:21;2.45;;;1.30;;
77868;SDS011;67231;59.144;37.934;2023-02-01T09:47:36;4.68;;;2.10;;
77868;SDS011;67231;59.144;37.934;2023-02-01T09:50:13;3.22;;;1.80;;
77868;SDS011;67231;59.144;37.934;2023-02-01T09:53:02;2.78;;;1.35;;
77868;SDS011;67231;59.144;37.934;2023-02-01T09:55:35;3.33;;;1.48;;
77868;SDS011;67231;59.144;37.934;2023-02-01T10:01:05;2.33;;;1.00;;
77868;SDS011;67231;59.144;37.934;2023-02-01T10:03:49;3.05;;;1.23;;
77868;SDS011;67231;59.144;37.934;2023-02-01T10:12:25;2.70;;;1.40;;
77868;SDS011;67231;59.144;37.934;2023-02-01T10:18:02;1.80;;;1.10;;
77868;SDS011;67231;59.144;37.934;2023-02-01T10:20:56;5.13;;;1.40;;
77868;SDS011;67231;59.144;37.934;2023-02-01T10:28:52;3.30;;;1.40;;
77868;SDS011;67231;59.144;37.934;2023-02-01T10:31:22;3.55;;;1.48;;
77868;SDS011;67231;59.144;37.934;2023-02-01T10:33:58;4.55;;;1.60;;
77868;SDS011;67231;59.144;37.934;2023-02-01T10:36:35;2.97;;;1.25;;
77868;SDS011;67231;59.144;37.934;2023-02-01T10:39:06;2.97;;;1.10;;
77868;SDS011;67231;59.144;37.934;2023-02-01T10:41:37;4.03;;;1.65;;
77868;SDS011;67231;59.144;37.934;2023-02-01T10:44:07;3.75;;;1.30;;
77868;SDS011;67231;59.144;37.934;2023-02-01T10:46:40;3.10;;;1.60;;
77868;SDS011;67231;59.144;37.934;2023-02-01T10:49:08;2.85;;;1.40;;
77868;SDS011;67231;59.144;37.934;2023-02-01T10:51:42;2.88;;;1.42;;
77868;SDS011;67231;59.144;37.934;2023-02-01T10:54:17;2.28;;;1.00;;
77868;SDS011;67231;59.144;37.934;2023-02-01T10:56:45;2.60;;;1.10;;
77868;SDS011;67231;59.144;37.934;2023-02-01T10:59:16;2.28;;;1.20;;
77868;SDS011;67231;59.144;37.934;2023-02-01T11:01:47;2.58;;;1.05;;
77868;SDS011;67231;59.144;37.934;2023-02-01T11:04:17;1.85;;;0.95;;
77868;SDS011;67231;59.144;37.934;2023-02-01T11:06:53;3.08;;;1.50;;
77868;SDS011;67231;59.144;37.934;2023-02-01T11:09:32;3.28;;;1.02;;
77868;SDS011;67231;59.144;37.934;2023-02-01T11:12:04;3.28;;;1.60;;
77868;SDS011;67231;59.144;37.934;2023-02-01T11:14:39;1.88;;;1.20;;
77868;SDS011;67231;59.144;37.934;2023-02-01T11:19:46;3.33;;;1.67;;
77868;SDS011;67231;59.144;37.934;2023-02-01T11:22:21;4.45;;;2.00;;
77868;SDS011;67231;59.144;37.934;2023-02-01T11:24:47;5.32;;;2.20;;
77868;SDS011;67231;59.144;37.934;2023-02-01T11:27:17;3.00;;;1.75;;
77868;SDS011;67231;59.144;37.934;2023-02-01T11:29:47;4.38;;;1.88;;
77868;SDS011;67231;59.144;37.934;2023-02-01T11:32:17;3.63;;;1.50;;
77868;SDS011;67231;59.144;37.934;2023-02-01T11:34:46;3.65;;;1.50;;
77868;SDS011;67231;59.144;37.934;2023-02-01T11:37:20;4.43;;;1.70;;
77868;SDS011;67231;59.144;37.934;2023-02-01T11:39:57;3.60;;;1.48;;
77868;SDS011;67231;59.144;37.934;2023-02-01T11:42:25;3.60;;;1.50;;
77868;SDS011;67231;59.144;37.934;2023-02-01T11:45:07;2.78;;;1.67;;
77868;SDS011;67231;59.144;37.934;2023-02-01T11:47:59;2.15;;;1.35;;
77868;SDS011;67231;59.144;37.934;2023-02-01T11:50:30;2.00;;;1.00;;
77868;SDS011;67231;59.144;37.934;2023-02-01T11:53:14;2.92;;;1.23;;
77868;SDS011;67231;59.144;37.934;2023-02-01T12:01:55;3.25;;;1.50;;
77868;SDS011;67231;59.144;37.934;2023-02-01T12:12:33;3.30;;;1.50;;
77868;SDS011;67231;59.144;37.934;2023-02-01T12:15:43;6.40;;;1.50;;
77868;SDS011;67231;59.144;37.934;2023-02-01T12:21:32;4.35;;;1.90;;
77868;SDS011;67231;59.144;37.934;2023-02-01T12:24:28;3.65;;;1.77;;
77868;SDS011;67231;59.144;37.934;2023-02-01T12:41:04;2.63;;;1.50;;
77868;SDS011;67231;59.144;37.934;2023-02-01T12:43:43;5.13;;;1.77;;
77868;SDS011;67231;59.144;37.934;2023-02-01T12:46:16;2.58;;;1.30;;
77868;SDS011;67231;59.144;37.934;2023-02-01T12:49:05;2.88;;;1.13;;
77868;SDS011;67231;59.144;37.934;2023-02-01T12:51:36;2.35;;;1.25;;
77868;SDS011;67231;59.144;37.934;2023-02-01T12:56:58;2.28;;;1.30;;
77868;SDS011;67231;59.144;37.934;2023-02-01T12:59:36;1.98;;;1.00;;
77868;SDS011;67231;59.144;37.934;2023-02-01T13:02:16;2.95;;;1.50;;
77868;SDS011;67231;59.144;37.934;2023-02-01T13:10:45;2.00;;;1.23;;
77868;SDS011;67231;59.144;37.934;2023-02-01T13:18:37;1.48;;;1.02;;
77868;SDS011;67231;59.144;37.934;2023-02-01T13:21:12;2.15;;;1.08;;
77868;SDS011;67231;59.144;37.934;2023-02-01T13:23:59;1.85;;;1.00;;
77868;SDS011;67231;59.144;37.934;2023-02-01T13:26:25;1.67;;;1.10;;
77868;SDS011;67231;59.144;37.934;2023-02-01T13:28:55;2.50;;;1.35;;
77868;SDS011;67231;59.144;37.934;2023-02-01T13:40:39;3.13;;;1.27;;
77868;SDS011;67231;59.144;37.934;2023-02-01T13:45:53;2.40;;;1.13;;
77868;SDS011;67231;59.144;37.934;2023-02-01T13:48:23;1.80;;;1.10;;
77868;SDS011;67231;59.144;37.934;2023-02-01T13:51:05;2.20;;;1.13;;
77868;SDS011;67231;59.144;37.934;2023-02-01T13:53:32;2.60;;;1.20;;
77868;SDS011;67231;59.144;37.934;2023-02-01T13:58:34;2.05;;;1.10;;
77868;SDS011;67231;59.144;37.934;2023-02-01T14:03:58;2.40;;;1.20;;
77868;SDS011;67231;59.144;37.934;2023-02-01T14:14:46;10.60;;;4.50;;
77868;SDS011;67231;59.144;37.934;2023-02-01T14:19:22;2.83;;;1.40;;
77868;SDS011;67231;59.144;37.934;2023-02-01T14:21:56;3.40;;;1.58;;
77868;SDS011;67231;59.144;37.934;2023-02-01T14:24:28;1.63;;;1.05;;
77868;SDS011;67231;59.144;37.934;2023-02-01T14:26:59;2.83;;;1.38;;
77868;SDS011;67231;59.144;37.934;2023-02-01T14:29:35;2.53;;;1.33;;
77868;SDS011;67231;59.144;37.934;2023-02-01T14:32:07;2.35;;;1.02;;
77868;SDS011;67231;59.144;37.934;2023-02-01T14:47:51;2.92;;;1.40;;
77868;SDS011;67231;59.144;37.934;2023-02-01T15:00:58;1.80;;;1.08;;
77868;SDS011;67231;59.144;37.934;2023-02-01T15:06:32;2.72;;;1.60;;
77868;SDS011;67231;59.144;37.934;2023-02-01T15:09:03;2.55;;;1.35;;
77868;SDS011;67231;59.144;37.934;2023-02-01T15:11:52;2.95;;;1.38;;
77868;SDS011;67231;59.144;37.934;2023-02-01T15:19:58;2.67;;;1.40;;
77868;SDS011;67231;59.144;37.934;2023-02-01T15:22:25;2.83;;;1.30;;
77868;SDS011;67231;59.144;37.934;2023-02-01T15:24:53;3.70;;;1.80;;
77868;SDS011;67231;59.144;37.934;2023-02-01T15:27:19;3.75;;;1.50;;
77868;SDS011;67231;59.144;37.934;2023-02-01T15:29:45;2.60;;;1.40;;
77868;SDS011;67231;59.144;37.934;2023-02-01T15:32:31;5.63;;;1.90;;
77868;SDS011;67231;59.144;37.934;2023-02-01T15:35:03;4.85;;;1.90;;
77868;SDS011;67231;59.144;37.934;2023-02-01T15:37:29;2.95;;;1.27;;
77868;SDS011;67231;59.144;37.934;2023-02-01T15:42:39;4.15;;;1.60;;
77868;SDS011;67231;59.144;37.934;2023-02-01T15:47:46;2.90;;;1.45;;
77868;SDS011;67231;59.144;37.934;2023-02-01T15:50:18;2.78;;;1.45;;
77868;SDS011;67231;59.144;37.934;2023-02-01T15:52:46;2.03;;;1.20;;
77868;SDS011;67231;59.144;37.934;2023-02-01T15:57:51;3.35;;;1.17;;
77868;SDS011;67231;59.144;37.934;2023-02-01T16:00:21;2.58;;;1.20;;
77868;SDS011;67231;59.144;37.934;2023-02-01T16:05:40;3.20;;;1.50;;
77868;SDS011;67231;59.144;37.934;2023-02-01T16:08:13;3.15;;;1.13;;
77868;SDS011;67231;59.144;37.934;2023-02-01T16:10:47;2.88;;;1.25;;
77868;SDS011;67231;59.144;37.934;2023-02-01T16:13:16;3.40;;;1.40;;
77868;SDS011;67231;59.144;37.934;2023-02-01T16:15:43;1.58;;;0.95;;
77868;SDS011;67231;59.144;37.934;2023-02-01T16:18:09;1.77;;;1.10;;
77868;SDS011;67231;59.144;37.934;2023-02-01T16:20:37;3.00;;;1.55;;
77868;SDS011;67231;59.144;37.934;2023-02-01T16:23:04;2.80;;;1.30;;
77868;SDS011;67231;59.144;37.934;2023-02-01T16:25:31;3.05;;;1.50;;
77868;SDS011;67231;59.144;37.934;2023-02-01T16:27:57;4.03;;;1.70;;
77868;SDS011;67231;59.144;37.934;2023-02-01T16:30:23;3.35;;;1.40;;
77868;SDS011;67231;59.144;37.934;2023-02-01T16:32:56;3.22;;;1.15;;
77868;SDS011;67231;59.144;37.934;2023-02-01T16:35:28;2.05;;;1.13;;
77868;SDS011;67231;59.144;37.934;2023-02-01T16:38:04;2.25;;;1.10;;
77868;SDS011;67231;59.144;37.934;2023-02-01T16:40:38;1.98;;;1.10;;
77868;SDS011;67231;59.144;37.934;2023-02-01T16:43:11;2.40;;;1.30;;
77868;SDS011;67231;59.144;37.934;2023-02-01T16:45:42;2.65;;;1.17;;
77868;SDS011;67231;59.144;37.934;2023-02-01T16:48:22;3.55;;;1.48;;
77868;SDS011;67231;59.144;37.934;2023-02-01T16:50:55;5.75;;;1.60;;
77868;SDS011;67231;59.144;37.934;2023-02-01T16:53:23;4.15;;;1.40;;
77868;SDS011;67231;59.144;37.934;2023-02-01T16:55:50;2.72;;;1.58;;
77868;SDS011;67231;59.144;37.934;2023-02-01T16:58:17;4.97;;;1.50;;
77868;SDS011;67231;59.144;37.934;2023-02-01T17:00:44;2.47;;;1.30;;
77868;SDS011;67231;59.144;37.934;2023-02-01T17:03:12;4.97;;;1.15;;
77868;SDS011;67231;59.144;37.934;2023-02-01T17:05:45;2.33;;;1.10;;
77868;SDS011;67231;59.144;37.934;2023-02-01T17:08:16;1.88;;;1.17;;
77868;SDS011;67231;59.144;37.934;2023-02-01T17:10:51;2.33;;;1.20;;
77868;SDS011;67231;59.144;37.934;2023-02-01T17:13:17;2.95;;;1.20;;
77868;SDS011;67231;59.144;37.934;2023-02-01T17:15:50;4.55;;;1.20;;
77868;SDS011;67231;59.144;37.934;2023-02-01T17:18:20;1.90;;;0.93;;
77868;SDS011;67231;59.144;37.934;2023-02-01T17:20:46;3.35;;;1.20;;
77868;SDS011;67231;59.144;37.934;2023-02-01T17:23:13;2.15;;;1.13;;
77868;SDS011;67231;59.144;37.934;2023-02-01T17:25:40;2.10;;;1.05;;
77868;SDS011;67231;59.144;37.934;2023-02-01T17:28:06;2.67;;;1.17;;
77868;SDS011;67231;59.144;37.934;2023-02-01T17:30:32;3.28;;;0.90;;
77868;SDS011;67231;59.144;37.934;2023-02-01T17:32:58;2.42;;;1.30;;
77868;SDS011;67231;59.144;37.934;2023-02-01T17:35:26;2.17;;;1.20;;
77868;SDS011;67231;59.144;37.934;2023-02-01T17:37:53;1.63;;;0.73;;
77868;SDS011;67231;59.144;37.934;2023-02-01T17:40:19;2.08;;;1.08;;
77868;SDS011;67231;59.144;37.934;2023-02-01T17:42:45;2.95;;;1.40;;
77868;SDS011;67231;59.144;37.934;2023-02-01T17:48:05;2.20;;;1.10;;
77868;SDS011;67231;59.144;37.934;2023-02-01T17:50:32;2.90;;;1.40;;